Terminal Aerodrome Forecast
Issued by NWS

Home | Current Version | Previous Version | Text Only | Print | Product List | Glossary On
Versions: 1 2 3 4 5 6 7 8 9 10 11 12 13 14 15 16 17 18 19 20 21 22 23 24 25 26 27 28 29
687
FTUS41 KBUF 022322
TAFJHW
TAF
KJHW 022322Z 0300/0324 28012KT 5SM -SHSNRA OVC025
     FM030200 28013KT 2SM -SHSN OVC020
     FM030500 29013KT 2SM -SHSN OVC012
     FM031500 30011G18KT 4SM -SHRASN OVC015
     FM031800 29012G19KT P6SM OVC012
      AMD LTD TO CLD VIS AND WIND=

USA.gov is the U.S. government's official web portal to all federal, state and local government web resources and services.